ADDS METAR Data INFO
IDs: Format: Raw Decoded Include TAF

Data at: 0233 UTC 22 Jul 2017

KCVB 220215Z AUTO 15012G16KT 10SM CLR 33/17 A2993 RMK AO2 T03310173
KCVB 220155Z AUTO 15011G14KT 10SM CLR 34/17 A2993 RMK AO2 T03370165
KCVB 220135Z AUTO 14007G15KT 10SM CLR 34/16 A2992 RMK AO2 T03440158
KCVB 220115Z AUTO 14009KT 10SM CLR 35/15 A2992 RMK AO2 T03520154
KCVB 220055Z AUTO 15007KT 10SM CLR 36/14 A2992 RMK AO2 T03610140
KCVB 220035Z AUTO 16009KT 10SM CLR 37/14 A2991 RMK AO2 T03670143
KCVB 220015Z AUTO 15008G15KT 10SM CLR 37/14 A2991 RMK AO2 T03700142
KCVB 212355Z AUTO 14008KT 10SM CLR 38/14 A2991 RMK AO2 T03750140 10391 20355
KCVB 212335Z AUTO 16013KT 10SM SCT090 38/14 A2991 RMK AO2 T03800141
KCVB 212315Z AUTO 15008KT 10SM SCT090 38/13 A2991 RMK AO2 T03820127
KCVB 212255Z AUTO 11009G17KT 10SM CLR 38/13 A2992 RMK AO2 T03830130
KCVB 212235Z AUTO 16010G16KT 10SM CLR 38/14 A2993 RMK AO2 T03800135
KCVB 212215Z AUTO 16006KT 10SM SCT085 38/13 A2993 RMK AO2 T03840131
KCVB 212155Z AUTO 14010G16KT 10SM SCT085 39/13 A2994 RMK AO2 T03880132
KCVB 212135Z AUTO 17010G15KT 10SM CLR 39/12 A2994 RMK AO2 T03880123
KCVB 212115Z AUTO 16012G18KT 10SM SCT085 39/13 A2995 RMK AO2 T03870130
KCVB 212055Z AUTO 11006KT 10SM SCT085 39/14 A2996 RMK AO2 T03860135
KCVB 212035Z AUTO 15010G15KT 10SM CLR 38/13 A2997 RMK AO2 T03810129
KCVB 212015Z AUTO 12006G15KT 10SM CLR 38/14 A2997 RMK AO2 T03830135
KCVB 211955Z AUTO 16008G18KT 10SM CLR 38/13 A2998 RMK AO2 T03830134
KCVB 211935Z AUTO 12005G14KT 10SM CLR 38/14 A2999 RMK AO2 T03790136
KCVB 211915Z AUTO 13010G19KT 10SM CLR 38/14 A3000 RMK AO2 T03760141
KCVB 211855Z AUTO 18007G14KT 10SM CLR 37/14 A3001 RMK AO2 T03730140
KCVB 211835Z AUTO 20006KT 140V210 10SM CLR 37/15 A3002 RMK AO2 T03700145
KCVB 211815Z AUTO 19010KT 10SM CLR 36/15 A3003 RMK AO2 T03640151
KCVB 211755Z AUTO 16007KT 130V190 10SM CLR 36/15 A3003 RMK AO2 T03560151 10360 20240
KCVB 211735Z AUTO 17006KT 10SM CLR 35/16 A3004 RMK AO2 T03510159
KCVB 211715Z AUTO 00000KT 10SM CLR 35/17 A3005 RMK AO2 T03460169
KCVB 211655Z AUTO 19005KT 10SM CLR 34/17 A3005 RMK AO2 T03410168
KCVB 211635Z AUTO 16007KT 10SM CLR 33/18 A3006 RMK AO2 T03340176
KCVB 211615Z AUTO 15007KT 10SM CLR 32/18 A3006 RMK AO2 T03240183
KCVB 211555Z AUTO 16008KT 130V190 10SM CLR 32/19 A3007 RMK AO2 T03210187
KCVB 211535Z AUTO 19007KT 10SM CLR 31/19 A3007 RMK AO2 T03120191
KCVB 211515Z AUTO 17006KT 10SM CLR 31/20 A3007 RMK AO2 T03050197
KCVB 211455Z AUTO 19005KT 10SM CLR 30/20 A3007 RMK AO2 T02980201
KCVB 211435Z AUTO 00000KT 10SM CLR 29/20 A3007 RMK AO2 T02920201
KCVB 211415Z AUTO 15004KT 10SM CLR 28/21 A3007 RMK AO2 T02830211
KCVB 211355Z AUTO 00000KT 10SM CLR 28/21 A3007 RMK AO2 T02760214
KCVB 211335Z AUTO 11003KT 10SM CLR 27/22 A3007 RMK AO2 T02660218
KCVB 211315Z AUTO 10004KT 7SM CLR 26/22 A3006 RMK AO2 T02610220
KCVB 211255Z AUTO 00000KT 10SM CLR 26/22 A3006 RMK AO2 T02550222
KCVB 211235Z AUTO 00000KT 10SM CLR 25/23 A3005 RMK AO2 T02460225
KCVB 211215Z AUTO 00000KT 10SM CLR 24/23 A3005 RMK AO2 T02410225
KCVB 211155Z AUTO 00000KT 10SM CLR 24/22 A3005 RMK AO2 T02420224 10282 20242
KCVB 211135Z AUTO 00000KT 10SM CLR 25/23 A3005 RMK AO2 T02450225
KCVB 211115Z AUTO 07003KT 10SM CLR 25/21 A3004 RMK AO2 T02450213
KCVB 211055Z AUTO 00000KT 10SM CLR 25/21 A3003 RMK AO2 T02450208
KCVB 211035Z AUTO 00000KT 10SM CLR 25/21 A3002 RMK AO2 T02450207
KCVB 211015Z AUTO 08003KT 10SM CLR 25/21 A3002 RMK AO2 T02460207
KCVB 210955Z AUTO 00000KT 10SM CLR 25/21 A3002 RMK AO2 T02500206
KCVB 210935Z AUTO 12003KT 10SM CLR 26/21 A3002 RMK AO2 T02550208
KCVB 210915Z AUTO 11003KT 10SM CLR 26/21 A3003 RMK AO2 T02570207
KCVB 210855Z AUTO 11004KT 10SM CLR 26/21 A3003 RMK AO2 T02600206
KCVB 210835Z AUTO 13003KT 10SM CLR 26/21 A3004 RMK AO2 T02600206
KCVB 210815Z AUTO 14004KT 10SM CLR 27/21 A3004 RMK AO2 T02650206
KCVB 210755Z AUTO 12003KT 10SM CLR 27/21 A3005 RMK AO2 T02660205
KCVB 210735Z AUTO 14004KT 10SM CLR 27/21 A3005 RMK AO2 T02700205
KCVB 210715Z AUTO 14004KT 10SM CLR 27/20 A3005 RMK AO2 T02700203
KCVB 210655Z AUTO 13004KT 10SM CLR 28/20 A3006 RMK AO2 T02750202
KCVB 210635Z AUTO 14006KT 10SM CLR 28/20 A3006 RMK AO2 T02770202
KCVB 210615Z AUTO 15007KT 10SM CLR 28/20 A3006 RMK AO2 T02800202
KCVB 210555Z AUTO 15007KT 10SM CLR 28/20 A3006 RMK AO2 T02830204 10375 20283 403910236
KCVB 210535Z AUTO 14007KT 10SM CLR 29/20 A3006 RMK AO2 T02860203
KCVB 210515Z AUTO 15007KT 10SM CLR 29/20 A3006 RMK AO2 T02880202
KCVB 210455Z AUTO 14009KT 10SM CLR 29/20 A3005 RMK AO2 T02920198
KCVB 210435Z AUTO 14009KT 10SM CLR 30/19 A3005 RMK AO2 T02950189
KCVB 210415Z AUTO 14010KT 10SM CLR 30/18 A3004 RMK AO2 T03000182
KCVB 210355Z AUTO 15008KT 10SM CLR 31/18 A3003 RMK AO2 T03050177
KCVB 210335Z AUTO 15010G17KT 10SM CLR 31/17 A3002 RMK AO2 T03110174
KCVB 210315Z AUTO 15011G20KT 10SM CLR 32/19 A3002 RMK AO2 T03150187
KCVB 210255Z AUTO 15010G18KT 10SM CLR 32/19 A3000 RMK AO2 T03210191
KCVB 210235Z AUTO 16012KT 10SM CLR 33/19 A3000 RMK AO2 T03270191
KCVB 210215Z AUTO 14009KT 10SM CLR 33/18 A2999 RMK AO2 T03340176
KCVB 210155Z AUTO 15008KT 10SM CLR 34/17 A2998 RMK AO2 T03400165
KCVB 210135Z AUTO 15008KT 10SM CLR 35/15 A2998 RMK AO2 T03450152
KCVB 210115Z AUTO 14010KT 10SM CLR 35/15 A2998 RMK AO2 T03510152
KCVB 210055Z AUTO 14007KT 10SM SCT080 36/16 A2998 RMK AO2 T03620155
KCVB 210035Z AUTO 14010KT 10SM SCT080 37/16 A2997 RMK AO2 T03660155
KCVB 210015Z AUTO 13009G16KT 10SM SCT080 37/15 A2997 RMK AO2 T03730149
KCVB 202355Z AUTO 12008G17KT 10SM SCT080 37/14 A2997 RMK AO2 T03740143 10391 20355
KCVB 202335Z AUTO 14009KT 10SM CLR 38/14 A2997 RMK AO2 T03810138
KCVB 202315Z AUTO 15011G14KT 10SM SCT085 38/14 A2997 RMK AO2 T03830140
KCVB 202255Z AUTO 16014G17KT 7SM SCT085 39/14 A2998 RMK AO2 T03880143
KCVB 202235Z AUTO 15007KT 090V180 10SM CLR 39/14 A2998 RMK AO2 LTG DSNT W T03860141
KCVB 202215Z AUTO 14007KT 10SM SCT080 37/15 A2999 RMK AO2 T03740145
KCVB 202155Z AUTO 15007G16KT 10SM SCT080 39/15 A3001 RMK AO2 T03860146
KCVB 202135Z AUTO 13008G14KT 10SM SCT080 39/15 A3001 RMK AO2 T03850147
KCVB 202115Z AUTO 22006G15KT 10SM CLR 39/15 A3002 RMK AO2 T03910149
KCVB 202055Z AUTO 17007G14KT 10SM CLR 39/14 A3003 RMK AO2 T03860141
KCVB 202035Z AUTO 15011G15KT 10SM CLR 39/14 A3004 RMK AO2 T03850136
KCVB 202015Z AUTO 14005G17KT 7SM CLR 38/14 A3005 RMK AO2 T03810140
KCVB 201955Z AUTO 14006KT 10SM CLR 38/16 A3005 RMK AO2 T03800157
KCVB 201935Z AUTO 05003KT 10SM CLR 37/15 A3006 RMK AO2 T03720151
KCVB 201915Z AUTO 20007G15KT 7SM CLR 38/16 A3008 RMK AO2 T03760164
KCVB 201855Z AUTO 13008KT 090V170 10SM SCT001 SCT006 SCT060 37/17 A3009 RMK AO2 T03650166
KCVB 201835Z AUTO 15011KT 2SM HZ SCT001 SCT006 37/17 A3010 RMK AO2 VIS 1/2V5 T03680169
KCVB 201815Z AUTO 12004KT 10SM CLR 36/17 A3010 RMK AO2 T03610166
KCVB 201755Z AUTO 19006KT 10SM CLR 35/17 A3012 RMK AO2 T03540168 10355 20240
KCVB 201735Z AUTO 19010KT 10SM CLR 35/17 A3012 RMK AO2 T03510167
KCVB 201715Z AUTO 19006KT 10SM CLR 35/18 A3013 RMK AO2 T03460176
KCVB 201655Z AUTO 18008KT 120V200 10SM CLR 34/19 A3014 RMK AO2 T03390185
KCVB 201635Z AUTO 19007KT 10SM CLR 33/19 A3015 RMK AO2 T03340190
KCVB 201615Z AUTO 19005KT 10SM CLR 33/19 A3016 RMK AO2 T03250186
KCVB 201555Z AUTO 16007KT 10SM SCT037 32/19 A3017 RMK AO2 T03230193
KCVB 201535Z AUTO 18003KT 10SM CLR 31/20 A3017 RMK AO2 T03140197
KCVB 201515Z AUTO 17006KT 10SM CLR 31/20 A3017 RMK AO2 T03100201
KCVB 201455Z AUTO 16008KT 10SM CLR 29/20 A3017 RMK AO2 T02940203
KCVB 201435Z AUTO 16006KT 10SM CLR 29/21 A3017 RMK AO2 T02910209